createdAt,value
2022-12-07T00:00:06.576Z,6.90
2022-12-07T00:01:06.551Z,7.50
2022-12-07T00:02:06.578Z,7.00
2022-12-07T00:03:06.586Z,6.90
2022-12-07T00:04:06.518Z,7.20
2022-12-07T00:05:06.528Z,7.20
2022-12-07T00:06:06.506Z,7.90
2022-12-07T00:07:06.473Z,7.20
2022-12-07T00:08:06.567Z,7.00
2022-12-07T00:09:06.455Z,7.30
2022-12-07T00:10:06.451Z,7.30
2022-12-07T00:11:06.439Z,7.10
2022-12-07T00:12:06.422Z,7.60
2022-12-07T00:13:06.600Z,7.40
2022-12-07T00:14:06.425Z,6.80
2022-12-07T00:15:06.394Z,7.40
2022-12-07T00:16:06.420Z,7.70
2022-12-07T00:17:06.362Z,7.40
2022-12-07T00:18:06.351Z,6.80
2022-12-07T00:19:06.363Z,7.50
2022-12-07T00:20:06.362Z,7.50
2022-12-07T00:21:06.474Z,6.70
2022-12-07T00:22:06.310Z,7.40
2022-12-07T00:23:06.298Z,7.90
2022-12-07T00:24:06.293Z,8.60
2022-12-07T00:25:06.288Z,9.40
2022-12-07T00:26:06.306Z,8.50
2022-12-07T00:27:06.303Z,8.20
2022-12-07T00:28:06.243Z,9.70
2022-12-07T00:29:06.246Z,9.30
2022-12-07T00:30:06.244Z,7.70
2022-12-07T00:31:06.237Z,7.00
2022-12-07T00:32:06.311Z,7.50
2022-12-07T00:33:06.195Z,7.90
2022-12-07T00:34:06.273Z,8.20
2022-12-07T00:35:06.184Z,7.10
2022-12-07T00:36:06.202Z,7.20
2022-12-07T00:37:06.149Z,7.60
2022-12-07T00:38:06.145Z,8.70
2022-12-07T00:39:06.138Z,8.50
2022-12-07T00:40:06.123Z,7.50
2022-12-07T00:41:06.133Z,7.20
2022-12-07T00:42:06.128Z,7.60
2022-12-07T00:43:06.101Z,7.90
2022-12-07T00:44:06.083Z,8.60
2022-12-07T00:45:06.073Z,7.70
2022-12-07T00:46:06.111Z,7.50
2022-12-07T00:47:06.045Z,8.10
2022-12-07T00:48:06.046Z,7.10
2022-12-07T00:49:06.058Z,7.10
2022-12-07T00:50:06.016Z,7.90
2022-12-07T00:51:06.013Z,7.80
2022-12-07T00:52:06.011Z,8.90
2022-12-07T00:53:06.007Z,8.40
2022-12-07T00:54:05.967Z,8.80
2022-12-07T00:55:06.036Z,8.20
2022-12-07T00:56:06.003Z,8.70
2022-12-07T00:57:05.942Z,8.30
2022-12-07T00:58:05.931Z,6.90
2022-12-07T00:59:05.940Z,7.90
2022-12-07T01:00:05.908Z,7.90
2022-12-07T01:01:05.951Z,8.10
2022-12-07T01:02:05.924Z,7.80
2022-12-07T01:03:05.952Z,7.60
2022-12-07T01:04:05.891Z,7.20
2022-12-07T01:05:05.855Z,8.70
2022-12-07T01:06:05.877Z,8.40
2022-12-07T01:07:05.877Z,8.70
2022-12-07T01:08:05.956Z,7.50
2022-12-07T01:09:05.835Z,7.90
2022-12-07T01:10:05.811Z,8.10
2022-12-07T01:11:05.837Z,9.50
2022-12-07T01:12:05.790Z,8.60
2022-12-07T01:13:05.769Z,9.50
2022-12-07T01:14:05.767Z,8.20
2022-12-07T01:15:05.765Z,8.60
2022-12-07T01:16:05.773Z,8.40
2022-12-07T01:17:05.801Z,8.00
2022-12-07T01:18:05.756Z,7.80
2022-12-07T01:19:05.870Z,8.40
2022-12-07T01:20:05.694Z,7.50
2022-12-07T01:21:05.762Z,7.80
2022-12-07T01:22:05.680Z,7.70
2022-12-07T01:23:05.660Z,7.60
2022-12-07T01:24:05.667Z,8.00
2022-12-07T01:25:05.644Z,8.30
2022-12-07T01:26:05.688Z,7.50
2022-12-07T01:27:05.645Z,7.70
2022-12-07T01:28:05.612Z,8.00
2022-12-07T01:29:05.611Z,8.10
2022-12-07T01:30:05.589Z,8.30
2022-12-07T01:31:05.638Z,8.30
2022-12-07T01:32:05.571Z,7.40
2022-12-07T01:33:05.552Z,7.60
2022-12-07T01:34:05.668Z,7.70
2022-12-07T01:35:05.538Z,7.50
2022-12-07T01:36:05.539Z,7.80
2022-12-07T01:37:05.520Z,7.90
2022-12-07T01:38:05.505Z,8.90
2022-12-07T01:39:05.489Z,8.20
2022-12-07T01:40:05.495Z,9.30
2022-12-07T01:41:05.520Z,8.20
2022-12-07T01:42:05.526Z,9.10
2022-12-07T01:43:05.457Z,9.00
2022-12-07T01:44:05.436Z,9.20
2022-12-07T01:45:05.450Z,9.60
2022-12-07T01:46:05.510Z,8.80
2022-12-07T01:47:05.412Z,9.20
2022-12-07T01:48:05.417Z,9.70
2022-12-07T01:49:05.407Z,8.60
2022-12-07T01:50:05.427Z,9.10
2022-12-07T01:51:05.393Z,9.30
2022-12-07T01:52:05.423Z,9.20
2022-12-07T01:53:05.380Z,9.20
2022-12-07T01:54:05.366Z,9.30
2022-12-07T01:55:05.321Z,9.40
2022-12-07T01:56:05.378Z,9.40
2022-12-07T01:57:05.306Z,9.90
2022-12-07T01:58:05.332Z,9.40
2022-12-07T01:59:05.279Z,10.10
2022-12-07T02:00:05.523Z,10.60
2022-12-07T02:01:05.345Z,10.00
2022-12-07T02:02:05.281Z,9.90
2022-12-07T02:03:05.326Z,10.00
2022-12-07T02:04:05.246Z,11.20
2022-12-07T02:05:05.248Z,9.70
2022-12-07T02:06:05.244Z,10.40
2022-12-07T02:07:05.200Z,9.90
2022-12-07T02:08:05.211Z,10.30
2022-12-07T02:09:05.175Z,11.30
2022-12-07T02:10:05.165Z,11.20
2022-12-07T02:11:05.172Z,10.70
2022-12-07T02:12:05.265Z,10.60
2022-12-07T02:13:05.131Z,11.10
2022-12-07T02:14:05.140Z,10.90
2022-12-07T02:15:05.110Z,11.10
2022-12-07T02:16:05.180Z,11.30
2022-12-07T02:17:05.090Z,11.50
2022-12-07T02:18:05.078Z,11.10
2022-12-07T02:19:05.091Z,11.60
2022-12-07T02:20:05.113Z,11.00
2022-12-07T02:21:05.069Z,10.50
2022-12-07T02:22:05.033Z,11.50
2022-12-07T02:23:05.061Z,10.80
2022-12-07T02:24:05.015Z,10.10
2022-12-07T02:25:05.025Z,10.50
2022-12-07T02:26:05.013Z,11.20
2022-12-07T02:27:05.011Z,11.50
2022-12-07T02:28:04.990Z,11.70
2022-12-07T02:29:04.957Z,11.70
2022-12-07T02:30:05.540Z,11.10
2022-12-07T02:31:05.022Z,10.00
2022-12-07T02:32:04.933Z,12.20
2022-12-07T02:33:04.971Z,10.50
2022-12-07T02:34:04.906Z,10.80
2022-12-07T02:35:04.908Z,10.80
2022-12-07T02:36:04.931Z,11.40
2022-12-07T02:37:04.917Z,10.40
2022-12-07T02:38:04.862Z,11.40
2022-12-07T02:39:04.859Z,9.50
2022-12-07T02:40:05.062Z,9.60
2022-12-07T02:41:04.844Z,10.60
2022-12-07T02:42:04.886Z,10.80
2022-12-07T02:43:04.833Z,10.40
2022-12-07T02:44:04.822Z,10.50
2022-12-07T02:45:04.871Z,9.70
2022-12-07T02:46:04.829Z,9.50
2022-12-07T02:47:04.775Z,10.20
2022-12-07T02:48:04.784Z,11.10
2022-12-07T02:49:04.784Z,11.20
2022-12-07T02:50:05.016Z,9.10
2022-12-07T02:51:04.833Z,10.10
2022-12-07T02:52:04.737Z,10.00
2022-12-07T02:53:04.714Z,9.50
2022-12-07T02:54:04.703Z,10.50
2022-12-07T02:55:04.753Z,9.50
2022-12-07T02:56:04.761Z,9.40
2022-12-07T02:57:04.668Z,9.80
2022-12-07T02:58:04.662Z,10.70
2022-12-07T02:59:04.691Z,9.80
2022-12-07T03:00:05.031Z,10.70
2022-12-07T03:01:04.638Z,9.50
2022-12-07T03:02:04.688Z,9.70
2022-12-07T03:03:04.676Z,8.80
2022-12-07T03:04:04.684Z,9.80
2022-12-07T03:05:04.578Z,10.60
2022-12-07T03:06:04.579Z,9.80
2022-12-07T03:07:04.566Z,9.90
2022-12-07T03:08:04.577Z,9.50
2022-12-07T03:09:04.657Z,10.40
2022-12-07T03:10:04.805Z,9.80
2022-12-07T03:11:04.570Z,9.70
2022-12-07T03:12:04.524Z,9.40
2022-12-07T03:13:04.516Z,9.40
2022-12-07T03:14:04.496Z,10.00
2022-12-07T03:15:04.467Z,9.10
2022-12-07T03:16:04.576Z,9.10
2022-12-07T03:17:04.458Z,8.80
2022-12-07T03:18:04.436Z,8.50
2022-12-07T03:19:04.625Z,8.70
2022-12-07T03:20:04.696Z,8.80
2022-12-07T03:21:04.436Z,9.10
2022-12-07T03:22:04.393Z,9.60
2022-12-07T03:23:04.388Z,11.30
2022-12-07T03:24:04.381Z,10.30
2022-12-07T03:25:04.404Z,10.00
2022-12-07T03:26:04.409Z,9.40
2022-12-07T03:27:04.343Z,8.80
2022-12-07T03:28:04.339Z,9.20
2022-12-07T03:29:04.334Z,8.10
2022-12-07T03:30:04.691Z,9.20
2022-12-07T03:31:04.435Z,8.50
2022-12-07T03:32:04.322Z,8.30
2022-12-07T03:33:04.290Z,8.00
2022-12-07T03:34:04.363Z,9.00
2022-12-07T03:35:04.257Z,8.60
2022-12-07T03:36:04.274Z,8.70
2022-12-07T03:37:04.262Z,9.00
2022-12-07T03:38:04.238Z,8.10
2022-12-07T03:39:04.222Z,8.30
2022-12-07T03:40:04.483Z,8.60
2022-12-07T03:41:04.216Z,9.70
2022-12-07T03:42:04.189Z,8.10
2022-12-07T03:43:04.184Z,9.10
2022-12-07T03:44:04.169Z,8.50
2022-12-07T03:45:04.160Z,9.40
2022-12-07T03:46:04.197Z,8.30
2022-12-07T03:47:04.150Z,8.50
2022-12-07T03:48:04.160Z,8.40
2022-12-07T03:49:04.915Z,8.80
2022-12-07T03:50:04.429Z,8.30
2022-12-07T03:51:04.114Z,10.00
2022-12-07T03:52:04.079Z,9.70
2022-12-07T03:53:04.099Z,9.70
2022-12-07T03:54:04.051Z,10.10
2022-12-07T03:55:04.056Z,9.70
2022-12-07T03:56:04.129Z,8.50
2022-12-07T03:57:04.030Z,9.10
2022-12-07T03:58:04.023Z,8.60
2022-12-07T03:59:04.002Z,8.20
2022-12-07T04:00:04.273Z,9.70
2022-12-07T04:01:04.045Z,8.50
2022-12-07T04:02:04.083Z,7.90
2022-12-07T04:03:04.133Z,8.40
2022-12-07T04:04:03.975Z,9.70
2022-12-07T04:05:03.944Z,8.30
2022-12-07T04:06:03.927Z,8.80
2022-12-07T04:07:03.938Z,9.30
2022-12-07T04:08:03.998Z,8.70
2022-12-07T04:09:03.932Z,7.90
2022-12-07T04:10:04.123Z,8.10
2022-12-07T04:11:03.954Z,7.70
2022-12-07T04:12:04.437Z,7.80
2022-12-07T04:13:03.869Z,7.60
2022-12-07T04:14:03.836Z,8.00
2022-12-07T04:15:03.861Z,8.20
2022-12-07T04:16:03.909Z,8.60
2022-12-07T04:17:03.847Z,7.30
2022-12-07T04:18:03.810Z,8.70
2022-12-07T04:19:04.446Z,7.70
2022-12-07T04:20:04.188Z,7.00
2022-12-07T04:21:03.781Z,7.00
2022-12-07T04:22:03.800Z,8.00
2022-12-07T04:23:03.855Z,7.20
2022-12-07T04:24:03.729Z,7.30
2022-12-07T04:25:03.755Z,7.10
2022-12-07T04:26:03.726Z,8.50
2022-12-07T04:27:03.736Z,9.20
2022-12-07T04:28:03.727Z,8.70
2022-12-07T04:29:07.618Z,8.40
2022-12-07T04:30:03.901Z,7.90
2022-12-07T04:31:03.779Z,8.40
2022-12-07T04:32:03.703Z,8.30
2022-12-07T04:33:03.671Z,8.40
2022-12-07T04:34:03.634Z,7.90
2022-12-07T04:35:03.616Z,9.00
2022-12-07T04:36:03.622Z,8.20
2022-12-07T04:37:03.618Z,8.40
2022-12-07T04:38:03.589Z,8.80
2022-12-07T04:39:03.568Z,8.70
2022-12-07T04:40:03.952Z,8.40
2022-12-07T04:41:03.591Z,8.70
2022-12-07T04:42:03.579Z,9.10
2022-12-07T04:43:03.521Z,8.30
2022-12-07T04:44:03.521Z,8.70
2022-12-07T04:45:03.516Z,8.80
2022-12-07T04:46:03.498Z,9.50
2022-12-07T04:47:03.583Z,7.70
2022-12-07T04:48:03.527Z,8.40
2022-12-07T04:49:03.475Z,8.40
2022-12-07T04:50:03.669Z,8.00
2022-12-07T04:51:03.438Z,8.80
2022-12-07T04:52:03.474Z,8.20
2022-12-07T04:53:03.470Z,8.50
2022-12-07T04:54:03.436Z,8.90
2022-12-07T04:55:03.412Z,9.40
2022-12-07T04:56:03.494Z,9.50
2022-12-07T04:57:03.392Z,9.20
2022-12-07T04:58:03.370Z,9.20
2022-12-07T04:59:03.361Z,8.80
2022-12-07T05:00:03.594Z,8.80
2022-12-07T05:01:03.447Z,8.00
2022-12-07T05:02:03.398Z,8.20
2022-12-07T05:03:03.308Z,8.70
2022-12-07T05:04:03.305Z,8.80
2022-12-07T05:05:03.301Z,8.60
2022-12-07T05:06:03.282Z,8.50
2022-12-07T05:07:03.348Z,7.70
2022-12-07T05:08:03.402Z,7.90
2022-12-07T05:09:03.259Z,8.00
2022-12-07T05:10:03.537Z,8.60
2022-12-07T05:11:03.265Z,7.00
2022-12-07T05:12:03.230Z,6.60
2022-12-07T05:13:03.221Z,6.30
2022-12-07T05:14:03.233Z,7.40
2022-12-07T05:15:03.190Z,8.60
2022-12-07T05:16:03.253Z,8.30
2022-12-07T05:17:03.186Z,8.70
2022-12-07T05:18:03.149Z,9.10
2022-12-07T05:19:03.199Z,9.00
2022-12-07T05:20:03.470Z,8.00
2022-12-07T05:21:03.134Z,9.10
2022-12-07T05:22:03.133Z,8.30
2022-12-07T05:23:03.123Z,8.10
2022-12-07T05:24:03.107Z,8.20
2022-12-07T05:25:03.094Z,8.00
2022-12-07T05:26:03.101Z,8.10
2022-12-07T05:27:03.141Z,8.10
2022-12-07T05:28:03.045Z,8.40
2022-12-07T05:29:03.041Z,8.30
2022-12-07T05:30:03.407Z,8.40
2022-12-07T05:31:03.015Z,8.20
2022-12-07T05:32:03.095Z,8.50
2022-12-07T05:33:02.995Z,7.40
2022-12-07T05:34:03.025Z,8.50
2022-12-07T05:35:03.049Z,8.10
2022-12-07T05:36:02.991Z,8.90
2022-12-07T05:37:03.000Z,7.50
2022-12-07T05:38:02.938Z,7.10
2022-12-07T05:39:02.959Z,6.20
2022-12-07T05:40:03.183Z,6.40
2022-12-07T05:41:02.907Z,5.50
2022-12-07T05:42:02.930Z,7.30
2022-12-07T05:43:04.904Z,7.30
2022-12-07T05:44:02.881Z,8.80
2022-12-07T05:45:02.905Z,8.80
2022-12-07T05:46:02.912Z,8.20
2022-12-07T05:47:02.876Z,8.10
2022-12-07T05:48:02.831Z,8.30
2022-12-07T05:49:02.862Z,8.20
2022-12-07T05:50:03.046Z,9.20
2022-12-07T05:51:02.807Z,7.20
2022-12-07T05:52:02.826Z,7.00
2022-12-07T05:53:02.782Z,7.10
2022-12-07T05:54:02.807Z,8.20
2022-12-07T05:55:02.776Z,6.40
2022-12-07T05:56:02.858Z,8.10
2022-12-07T05:57:02.760Z,7.60
2022-12-07T05:58:02.728Z,8.90
2022-12-07T05:59:02.718Z,9.60
2022-12-07T06:00:03.258Z,10.20
2022-12-07T06:01:02.707Z,9.50
2022-12-07T06:02:02.992Z,9.60
2022-12-07T06:03:02.854Z,9.50
2022-12-07T06:04:02.666Z,9.40
2022-12-07T06:05:02.651Z,10.00
2022-12-07T06:06:02.726Z,8.70
2022-12-07T06:07:02.688Z,7.40
2022-12-07T06:08:05.834Z,8.70
2022-12-07T06:09:02.631Z,8.80
2022-12-07T06:10:03.078Z,10.50
2022-12-07T06:11:02.691Z,10.70
2022-12-07T06:12:02.642Z,9.90
2022-12-07T06:13:02.561Z,10.20
2022-12-07T06:14:02.594Z,10.00
2022-12-07T06:15:02.575Z,9.70
2022-12-07T06:16:02.633Z,10.40
2022-12-07T06:17:02.604Z,11.20
2022-12-07T06:18:02.505Z,11.00
2022-12-07T06:19:02.601Z,10.00
2022-12-07T06:20:02.803Z,10.00
2022-12-07T06:21:02.475Z,11.10
2022-12-07T06:22:02.488Z,9.50
2022-12-07T06:23:02.485Z,9.80
2022-12-07T06:24:02.506Z,8.80
2022-12-07T06:25:07.099Z,10.40
2022-12-07T06:26:03.445Z,9.90
2022-12-07T06:27:02.457Z,10.30
2022-12-07T06:28:02.416Z,10.70
2022-12-07T06:29:02.393Z,10.40
2022-12-07T06:30:02.816Z,9.30
2022-12-07T06:31:02.373Z,8.70
2022-12-07T06:32:02.479Z,9.20
2022-12-07T06:33:02.418Z,9.90
2022-12-07T06:34:02.346Z,9.10
2022-12-07T06:35:02.332Z,9.80
2022-12-07T06:36:02.369Z,8.60
2022-12-07T06:37:02.324Z,9.40
2022-12-07T06:38:02.306Z,8.90
2022-12-07T06:39:02.308Z,8.70
2022-12-07T06:40:02.918Z,8.10
2022-12-07T06:41:02.278Z,7.90
2022-12-07T06:42:02.287Z,7.60
2022-12-07T06:43:02.272Z,8.40
2022-12-07T06:44:02.615Z,7.90
2022-12-07T06:45:02.340Z,7.90
2022-12-07T06:46:02.439Z,9.00
2022-12-07T06:47:31.803Z,9.70
2022-12-07T06:48:03.190Z,9.60
2022-12-07T06:49:02.179Z,9.90
2022-12-07T06:50:02.602Z,9.50
2022-12-07T06:51:02.158Z,9.70
2022-12-07T06:52:02.191Z,9.00
2022-12-07T06:53:02.282Z,9.00
2022-12-07T06:54:02.125Z,8.30
2022-12-07T06:55:02.116Z,8.40
2022-12-07T06:56:02.126Z,8.50
2022-12-07T06:57:02.137Z,9.00
2022-12-07T06:58:02.103Z,8.10
2022-12-07T06:59:02.080Z,7.50
2022-12-07T07:00:02.531Z,8.20
2022-12-07T07:01:02.105Z,7.50
2022-12-07T07:02:02.226Z,7.30
2022-12-07T07:03:02.062Z,7.10
2022-12-07T07:04:02.187Z,6.90
2022-12-07T07:05:02.008Z,6.90
2022-12-07T07:06:02.013Z,7.40
2022-12-07T07:07:02.056Z,6.70
2022-12-07T07:09:03.052Z,7.70
2022-12-07T07:10:02.205Z,6.70
2022-12-07T07:11:01.941Z,8.70
2022-12-07T07:12:02.524Z,8.60
2022-12-07T07:13:01.966Z,7.90
2022-12-07T07:14:01.930Z,7.00
2022-12-07T07:15:01.907Z,7.20
2022-12-07T07:16:01.926Z,7.50
2022-12-07T07:17:01.994Z,7.40
2022-12-07T07:18:07.581Z,7.20
2022-12-07T07:19:02.910Z,6.50
2022-12-07T07:20:02.217Z,6.90
2022-12-07T07:21:01.870Z,6.50
2022-12-07T07:22:01.878Z,6.80
2022-12-07T07:23:01.826Z,6.60
2022-12-07T07:24:01.843Z,6.50
2022-12-07T07:25:01.825Z,6.70
2022-12-07T07:26:01.798Z,7.00
2022-12-07T07:27:01.826Z,5.90
2022-12-07T07:28:01.880Z,7.20
2022-12-07T07:29:01.781Z,7.40
2022-12-07T07:30:02.147Z,8.10
2022-12-07T07:31:01.873Z,8.30
2022-12-07T07:32:06.487Z,6.80
2022-12-07T07:33:02.726Z,7.20
2022-12-07T07:34:01.707Z,6.40
2022-12-07T07:35:01.841Z,5.90
2022-12-07T07:37:21.936Z,6.10
2022-12-07T07:38:01.768Z,5.90
2022-12-07T07:39:01.671Z,5.30
2022-12-07T07:40:02.032Z,5.00
2022-12-07T07:41:01.636Z,4.50
2022-12-07T07:42:01.737Z,5.40
2022-12-07T07:43:01.622Z,4.50
2022-12-07T07:44:01.604Z,5.10
2022-12-07T07:45:08.508Z,5.10
2022-12-07T07:46:01.669Z,5.20
2022-12-07T07:47:02.698Z,5.10
2022-12-07T07:48:01.599Z,4.70
2022-12-07T07:49:10.636Z,3.90
2022-12-07T07:50:01.804Z,5.00
2022-12-07T07:51:01.525Z,4.00
2022-12-07T07:52:01.544Z,3.90
2022-12-07T07:53:01.612Z,4.40
2022-12-07T07:54:08.113Z,3.90
2022-12-07T07:55:01.541Z,4.70
2022-12-07T07:56:01.507Z,4.20
2022-12-07T07:57:01.521Z,4.10
2022-12-07T07:58:01.480Z,4.90
2022-12-07T07:59:01.445Z,4.90
2022-12-07T08:00:01.821Z,5.20
2022-12-07T08:01:01.523Z,5.00
2022-12-07T08:02:01.523Z,5.20
2022-12-07T08:03:08.060Z,5.70
2022-12-07T08:04:01.401Z,5.40
2022-12-07T08:05:03.544Z,5.40
2022-12-07T08:06:49.853Z,5.10
2022-12-07T08:07:49.864Z,5.40
2022-12-07T08:08:49.755Z,5.50
2022-12-07T08:09:51.251Z,5.80
2022-12-07T08:12:09.853Z,5.70
2022-12-07T08:15:28.250Z,6.10
2022-12-07T08:16:27.798Z,6.40
2022-12-07T08:17:29.739Z,5.40
2022-12-07T08:18:27.703Z,6.50
2022-12-07T08:19:27.678Z,6.30
2022-12-07T08:20:27.761Z,7.20
2022-12-07T08:21:27.768Z,5.90
2022-12-07T08:22:27.634Z,5.50
2022-12-07T08:23:34.925Z,5.30
2022-12-07T08:24:29.076Z,4.90
2022-12-07T08:25:27.604Z,4.80
2022-12-07T08:26:27.614Z,4.70
2022-12-07T08:27:27.586Z,5.00
2022-12-07T08:28:27.555Z,4.80
2022-12-07T08:29:27.593Z,5.10
2022-12-07T08:30:27.553Z,5.40
2022-12-07T08:31:27.614Z,4.50
2022-12-07T08:32:27.567Z,4.40
2022-12-07T08:33:28.893Z,4.20
2022-12-07T08:34:27.512Z,4.40
2022-12-07T08:35:28.511Z,4.00
2022-12-07T08:36:27.488Z,4.10
2022-12-07T08:37:27.509Z,4.00
2022-12-07T08:38:31.661Z,4.10
2022-12-07T08:39:32.020Z,3.90
2022-12-07T08:40:28.433Z,4.60
2022-12-07T08:41:27.501Z,4.10
2022-12-07T08:42:30.727Z,3.90
2022-12-07T08:43:27.400Z,3.70
2022-12-07T08:44:27.396Z,4.10
2022-12-07T08:45:27.882Z,4.40
2022-12-07T08:46:27.556Z,3.70
2022-12-07T08:47:27.405Z,4.20
2022-12-07T08:48:27.366Z,4.20
2022-12-07T08:49:27.360Z,5.20
2022-12-07T08:50:27.338Z,5.60
2022-12-07T08:51:29.974Z,6.10
2022-12-07T08:52:27.309Z,5.30
2022-12-07T08:53:27.345Z,4.90
2022-12-07T08:54:27.281Z,5.20
2022-12-07T08:55:27.336Z,5.00
2022-12-07T08:56:27.299Z,4.90
2022-12-07T08:57:27.360Z,5.00
2022-12-07T08:58:27.320Z,5.70
2022-12-07T08:59:27.236Z,4.90
2022-12-07T09:00:30.010Z,6.00
2022-12-07T09:01:27.504Z,5.90
2022-12-07T09:02:27.210Z,5.00
2022-12-07T09:03:27.191Z,5.50
2022-12-07T09:04:27.193Z,4.60
2022-12-07T09:05:27.230Z,4.60
2022-12-07T09:06:27.512Z,4.30
2022-12-07T09:07:27.193Z,3.90
2022-12-07T09:08:27.730Z,3.70
2022-12-07T09:09:27.544Z,3.60
2022-12-07T09:10:27.117Z,4.00
2022-12-07T09:11:29.045Z,4.00
2022-12-07T09:12:27.083Z,3.60
2022-12-07T09:13:27.108Z,4.10
2022-12-07T09:14:27.149Z,4.30
2022-12-07T09:15:27.081Z,4.00
2022-12-07T09:16:27.248Z,4.50
2022-12-07T09:17:27.290Z,4.10
2022-12-07T09:18:27.016Z,5.40
2022-12-07T09:19:27.027Z,4.60
2022-12-07T09:20:28.249Z,4.60
2022-12-07T09:21:27.008Z,3.90
2022-12-07T09:22:27.004Z,3.70
2022-12-07T09:23:27.028Z,3.40
2022-12-07T09:24:26.957Z,3.30
2022-12-07T09:25:26.990Z,3.10
2022-12-07T09:26:27.949Z,3.00
2022-12-07T09:27:26.930Z,3.80
2022-12-07T09:28:26.921Z,3.60
2022-12-07T09:29:26.913Z,3.50
2022-12-07T09:30:26.890Z,3.70
2022-12-07T09:31:27.170Z,2.90
2022-12-07T09:32:26.971Z,3.10
2022-12-07T09:33:26.895Z,2.80
2022-12-07T09:34:26.907Z,3.00
2022-12-07T09:35:27.250Z,2.70
2022-12-07T09:36:26.841Z,2.90
2022-12-07T09:37:26.821Z,2.80
2022-12-07T09:38:26.814Z,3.40
2022-12-07T09:39:26.823Z,3.60
2022-12-07T09:40:26.793Z,3.30
2022-12-07T09:41:26.801Z,3.20
2022-12-07T09:42:26.816Z,3.10
2022-12-07T09:43:26.756Z,3.30
2022-12-07T09:44:36.195Z,3.60
2022-12-07T09:45:26.748Z,2.80
2022-12-07T09:46:26.950Z,3.00
2022-12-07T09:47:26.709Z,3.10
2022-12-07T09:48:26.694Z,3.40
2022-12-07T09:49:26.739Z,3.00
2022-12-07T09:50:26.681Z,3.10
2022-12-07T09:51:26.705Z,2.70
2022-12-07T09:52:26.656Z,3.40
2022-12-07T09:53:27.579Z,3.10
2022-12-07T09:54:26.685Z,3.40
2022-12-07T09:55:26.686Z,3.00
2022-12-07T09:56:26.641Z,3.20
2022-12-07T09:57:26.599Z,3.30
2022-12-07T09:58:26.597Z,3.50
2022-12-07T09:59:26.628Z,3.10
2022-12-07T10:00:26.577Z,3.10
2022-12-07T10:01:26.750Z,3.00
2022-12-07T10:02:27.597Z,3.20
2022-12-07T10:03:26.562Z,3.10
2022-12-07T10:04:26.583Z,3.10
2022-12-07T10:05:26.608Z,3.10
2022-12-07T10:06:26.509Z,3.00
2022-12-07T10:07:26.511Z,3.00
2022-12-07T10:08:26.614Z,3.40
2022-12-07T10:09:26.607Z,3.80
2022-12-07T10:10:38.387Z,4.40
2022-12-07T10:11:28.493Z,4.60
2022-12-07T10:12:26.436Z,4.20
2022-12-07T10:13:27.465Z,3.60
2022-12-07T10:14:38.241Z,3.80
2022-12-07T10:15:27.397Z,3.00
2022-12-07T10:16:26.460Z,2.80
2022-12-07T10:17:26.408Z,3.60
2022-12-07T10:18:26.364Z,3.30
2022-12-07T10:19:26.954Z,3.50
2022-12-07T10:20:29.444Z,3.30
2022-12-07T10:21:26.346Z,3.40
2022-12-07T10:22:31.725Z,3.30
2022-12-07T10:23:27.314Z,3.30
2022-12-07T10:24:26.335Z,2.90
2022-12-07T10:25:26.337Z,4.10
2022-12-07T10:26:34.392Z,3.10
2022-12-07T10:27:26.263Z,3.50
2022-12-07T10:28:26.344Z,3.20
2022-12-07T10:29:33.067Z,3.10
2022-12-07T10:30:26.231Z,3.50
2022-12-07T10:31:26.306Z,3.50
2022-12-07T10:32:26.307Z,3.80
2022-12-07T10:33:26.205Z,3.40
2022-12-07T10:34:26.199Z,3.40
2022-12-07T10:35:26.224Z,3.40
2022-12-07T10:36:26.280Z,3.70
2022-12-07T10:37:27.130Z,15.40
2022-12-07T10:38:40.884Z,3.60
2022-12-07T10:39:26.131Z,3.50
2022-12-07T10:40:26.138Z,3.70
2022-12-07T10:41:26.163Z,3.70
2022-12-07T10:42:26.122Z,4.00
2022-12-07T10:43:26.117Z,3.30
2022-12-07T10:44:26.093Z,3.10
2022-12-07T10:45:26.175Z,3.90
2022-12-07T10:46:26.747Z,4.60
2022-12-07T10:47:26.106Z,3.40
2022-12-07T10:48:26.046Z,3.80
2022-12-07T10:49:26.025Z,2.90
2022-12-07T10:50:26.067Z,3.00
2022-12-07T10:51:26.106Z,3.00
2022-12-07T10:52:25.998Z,3.40
2022-12-07T10:53:26.194Z,3.10
2022-12-07T10:54:25.970Z,3.30
2022-12-07T10:55:26.494Z,3.30
2022-12-07T10:56:25.986Z,3.30
2022-12-07T10:57:25.945Z,7.10
2022-12-07T10:58:25.952Z,3.80
2022-12-07T10:59:33.485Z,4.20
2022-12-07T11:00:25.912Z,5.60
2022-12-07T11:01:25.966Z,2.80
2022-12-07T11:02:25.992Z,3.20
2022-12-07T11:03:35.955Z,3.70
2022-12-07T11:04:26.017Z,3.50
2022-12-07T11:05:25.875Z,3.60
2022-12-07T11:06:26.918Z,3.10
2022-12-07T11:08:43.096Z,3.60
2022-12-07T11:10:07.939Z,3.80
2022-12-07T11:10:44.110Z,3.80
2022-12-07T11:11:43.125Z,4.20
2022-12-07T11:12:43.053Z,3.50
2022-12-07T11:13:43.048Z,3.40
2022-12-07T11:14:43.021Z,3.00
2022-12-07T11:15:45.759Z,3.00
2022-12-07T11:16:43.147Z,2.60
2022-12-07T11:17:42.987Z,3.10
2022-12-07T11:18:42.981Z,2.90
2022-12-07T11:19:42.967Z,3.00
2022-12-07T11:20:42.948Z,3.20
2022-12-07T11:21:42.989Z,2.80
2022-12-07T11:22:42.943Z,3.30
2022-12-07T11:23:42.949Z,2.80
2022-12-07T11:24:45.921Z,3.10
2022-12-07T11:25:42.906Z,3.00
2022-12-07T11:26:46.330Z,3.10
2022-12-07T11:27:42.928Z,2.90
2022-12-07T11:28:42.966Z,3.10
2022-12-07T11:29:42.884Z,2.60
2022-12-07T11:30:42.882Z,2.70
2022-12-07T11:31:42.903Z,2.50
2022-12-07T11:32:42.925Z,3.20
2022-12-07T11:33:49.776Z,3.00
2022-12-07T11:34:42.818Z,3.70
2022-12-07T11:36:04.841Z,3.30
2022-12-07T11:36:42.863Z,2.80
2022-12-07T11:37:42.811Z,3.10
2022-12-07T11:38:42.759Z,3.20
2022-12-07T11:39:42.763Z,3.00
2022-12-07T11:40:42.748Z,2.90
2022-12-07T11:41:42.893Z,2.40
2022-12-07T11:42:49.247Z,2.90
2022-12-07T11:43:42.704Z,3.70
2022-12-07T11:44:42.710Z,5.20
2022-12-07T11:45:42.713Z,4.40
2022-12-07T11:46:42.735Z,4.40
2022-12-07T11:47:42.664Z,3.60
2022-12-07T11:48:42.807Z,4.00
2022-12-07T11:49:42.670Z,3.80
2022-12-07T11:50:42.644Z,3.60
2022-12-07T11:51:50.297Z,3.10
2022-12-07T11:52:42.606Z,2.70
2022-12-07T11:53:42.599Z,2.90
2022-12-07T11:54:42.576Z,3.30
2022-12-07T11:55:42.569Z,3.20
2022-12-07T11:56:42.577Z,3.10
2022-12-07T11:57:42.560Z,3.00
2022-12-07T11:58:42.557Z,2.60
2022-12-07T11:59:42.572Z,2.90
2022-12-07T12:02:00.915Z,3.10
2022-12-07T12:02:42.507Z,3.40
2022-12-07T12:03:42.783Z,2.80
2022-12-07T12:04:42.496Z,3.00
2022-12-07T12:05:42.458Z,2.70
2022-12-07T12:06:43.219Z,3.60
2022-12-07T12:15:28.290Z,4.10
2022-12-07T12:16:35.936Z,3.10
2022-12-07T12:17:43.336Z,3.90
2022-12-07T12:18:28.254Z,4.00
2022-12-07T12:19:28.211Z,4.50
2022-12-07T12:20:28.189Z,4.30
2022-12-07T12:21:28.203Z,3.50
2022-12-07T12:22:28.184Z,3.20
2022-12-07T12:23:28.203Z,3.60
2022-12-07T12:24:28.203Z,4.50
2022-12-07T12:25:35.498Z,4.00
2022-12-07T12:26:28.236Z,4.40
2022-12-07T12:27:28.115Z,4.20
2022-12-07T12:28:28.195Z,4.00
2022-12-07T12:29:28.091Z,3.30
2022-12-07T12:30:28.101Z,4.30
2022-12-07T12:31:28.161Z,4.80
2022-12-07T12:32:28.072Z,4.50
2022-12-07T12:33:28.309Z,3.70
2022-12-07T12:34:49.875Z,3.40
2022-12-07T12:35:29.033Z,3.00
2022-12-07T12:36:28.125Z,3.80
2022-12-07T12:37:28.035Z,4.30
2022-12-07T12:38:27.991Z,4.00
2022-12-07T12:39:28.064Z,3.90
2022-12-07T12:40:28.003Z,3.30
2022-12-07T12:41:28.034Z,4.00
2022-12-07T12:42:28.039Z,4.30
2022-12-07T12:43:29.219Z,3.70
2022-12-07T12:44:34.970Z,3.60
2022-12-07T12:45:27.933Z,3.60
2022-12-07T12:46:27.966Z,3.50
2022-12-07T12:47:27.885Z,3.70
2022-12-07T12:48:27.899Z,4.00
2022-12-07T12:49:27.874Z,3.80
2022-12-07T12:50:27.868Z,3.80
2022-12-07T12:51:28.265Z,3.80
2022-12-07T12:52:27.828Z,4.00
2022-12-07T12:53:27.866Z,4.40
2022-12-07T12:54:27.816Z,3.70
2022-12-07T12:55:27.819Z,3.60
2022-12-07T12:56:27.808Z,3.30
2022-12-07T12:57:27.784Z,3.20
2022-12-07T12:58:27.763Z,4.10
2022-12-07T12:59:27.754Z,3.60
2022-12-07T13:00:28.064Z,3.20
2022-12-07T13:01:27.889Z,3.40
2022-12-07T13:02:28.832Z,3.20
2022-12-07T13:03:27.724Z,3.20
2022-12-07T13:04:27.738Z,3.40
2022-12-07T13:05:27.717Z,3.30
2022-12-07T13:06:27.726Z,3.10
2022-12-07T13:07:27.705Z,3.80
2022-12-07T13:08:32.027Z,3.40
2022-12-07T13:09:28.869Z,3.40
2022-12-07T13:10:27.642Z,3.30
2022-12-07T13:11:27.652Z,3.20
2022-12-07T13:12:27.615Z,2.90
2022-12-07T13:13:27.608Z,3.00
2022-12-07T13:14:33.570Z,3.30
2022-12-07T13:15:28.642Z,3.20
2022-12-07T13:16:27.649Z,3.50
2022-12-07T13:17:27.573Z,3.50
2022-12-07T13:18:27.686Z,3.80
2022-12-07T13:19:27.581Z,3.80
